RA73750 OSLK-ULLI
Flight info
| Callsign | RA73750 |
|---|---|
| Flight time | 4h 32m |
| Altitude | 47000 |
| Route | LUBAM W6 ALE DCT GAZ W701 EZS DCT ERN DCT TBN DCT TUDEK/K0920F470 DCT PROZR G487 GUBOR A944 BEMES DCT KZR DCT DITEK DCT AST DCT SLK DCT NATIT B105 NIMTA DCT ABAGI DCT INLEN T747 GOBOM DCT LUZIK DCT GIKEN DCT OSKEM DCT ABREL DCT UMUTA |
| Aircraft | C750/M-SBDE3FGHRWXY/H |
Departure
| Time | 2026-05-07 14:01 |
|---|---|
| Airport | Latakia International Airport (OSLK) |
Arrival
| Time | 2026-05-07 18:33 |
|---|---|
| Airport | Pulkovo Airport (ULLI) |
| Time | Latitude | Longitude | Altitude | Speed | Heading |
|---|---|---|---|---|---|
| 2026-05-07 13:27 | 35.40576 | 35.95252 | 175 ft | 0 kts | 108° |
| 2026-05-07 13:54 | 35.40576 | 35.95253 | 177 ft | 0 kts | 108° |
| 2026-05-07 13:55 | 35.40573 | 35.95264 | 174 ft | 1 kts | 108° |
| 2026-05-07 13:55 | 35.40564 | 35.95275 | 174 ft | 3 kts | 148° |
| 2026-05-07 13:55 | 35.40539 | 35.95261 | 175 ft | 6 kts | 217° |
| 2026-05-07 13:55 | 35.40526 | 35.95192 | 175 ft | 11 kts | 270° |
| 2026-05-07 13:56 | 35.40515 | 35.95074 | 172 ft | 17 kts | 262° |
| 2026-05-07 13:56 | 35.40437 | 35.95027 | 175 ft | 8 kts | 133° |
| 2026-05-07 13:56 | 35.40434 | 35.95032 | 175 ft | 0 kts | 123° |
| 2026-05-07 13:56 | 35.40433 | 35.95034 | 175 ft | 2 kts | 127° |
| 2026-05-07 13:57 | 35.40411 | 35.95045 | 176 ft | 6 kts | 181° |
| 2026-05-07 13:57 | 35.40349 | 35.95024 | 175 ft | 14 kts | 191° |
| 2026-05-07 13:57 | 35.40205 | 35.95022 | 171 ft | 24 kts | 177° |
| 2026-05-07 13:57 | 35.40031 | 35.95036 | 172 ft | 26 kts | 175° |
| 2026-05-07 13:58 | 35.39911 | 35.95048 | 170 ft | 27 kts | 176° |
| 2026-05-07 13:58 | 35.39646 | 35.95067 | 172 ft | 29 kts | 174° |
| 2026-05-07 13:58 | 35.39510 | 35.95081 | 172 ft | 30 kts | 176° |
| 2026-05-07 13:58 | 35.39299 | 35.95100 | 173 ft | 30 kts | 176° |
| 2026-05-07 13:59 | 35.39160 | 35.95108 | 176 ft | 8 kts | 133° |
| 2026-05-07 13:59 | 35.39179 | 35.95113 | 176 ft | 7 kts | 335° |
| 2026-05-07 13:59 | 35.39207 | 35.95105 | 176 ft | 2 kts | 358° |
| 2026-05-07 13:59 | 35.39236 | 35.95104 | 175 ft | 6 kts | 358° |
| 2026-05-07 14:00 | 35.39246 | 35.95104 | 175 ft | 0 kts | 358° |
| 2026-05-07 14:00 | 35.39249 | 35.95103 | 175 ft | 8 kts | 358° |
| 2026-05-07 14:00 | 35.39629 | 35.95072 | 166 ft | 100 kts | 355° |
| 2026-05-07 14:00 | 35.40523 | 35.94990 | 172 ft | 155 kts | 355° |
| 2026-05-07 14:01 | 35.41643 | 35.94894 | 563 ft | 164 kts | 354° |
| 2026-05-07 14:01 | 35.42801 | 35.94827 | 1205 ft | 167 kts | 356° |
| 2026-05-07 14:01 | 35.43976 | 35.94772 | 1889 ft | 170 kts | 356° |
| 2026-05-07 14:01 | 35.45198 | 35.94698 | 2564 ft | 180 kts | 356° |
| 2026-05-07 14:02 | 35.46314 | 35.94628 | 3185 ft | 187 kts | 356° |
| 2026-05-07 14:02 | 35.47640 | 35.94536 | 3897 ft | 195 kts | 356° |
| 2026-05-07 14:02 | 35.48996 | 35.94236 | 4542 ft | 205 kts | 333° |
| 2026-05-07 14:02 | 35.49895 | 35.92881 | 5140 ft | 216 kts | 287° |
| 2026-05-07 14:03 | 35.49765 | 35.91034 | 5597 ft | 233 kts | 244° |
| 2026-05-07 14:03 | 35.48586 | 35.89622 | 5989 ft | 251 kts | 205° |
| 2026-05-07 14:03 | 35.46839 | 35.89151 | 6447 ft | 266 kts | 185° |
| 2026-05-07 14:03 | 35.44996 | 35.89551 | 6974 ft | 274 kts | 152° |
| 2026-05-07 14:04 | 35.43677 | 35.91203 | 7791 ft | 277 kts | 118° |
| 2026-05-07 14:04 | 35.43341 | 35.93522 | 8567 ft | 282 kts | 83° |
| 2026-05-07 14:04 | 35.43962 | 35.95813 | 9405 ft | 284 kts | 65° |
| 2026-05-07 14:04 | 35.44848 | 35.98000 | 10161 ft | 289 kts | 62° |
| 2026-05-07 14:05 | 35.45778 | 36.00229 | 10481 ft | 308 kts | 63° |
| 2026-05-07 14:05 | 35.46759 | 36.02698 | 10548 ft | 334 kts | 64° |
| 2026-05-07 14:05 | 35.47796 | 36.05369 | 10657 ft | 355 kts | 64° |
| 2026-05-07 14:05 | 35.48861 | 36.08063 | 11320 ft | 356 kts | 63° |
| 2026-05-07 14:06 | 35.49965 | 36.10824 | 11903 ft | 361 kts | 63° |
| 2026-05-07 14:06 | 35.51071 | 36.13613 | 12533 ft | 364 kts | 63° |
| 2026-05-07 14:06 | 35.52183 | 36.16444 | 13139 ft | 369 kts | 63° |
| 2026-05-07 14:06 | 35.53295 | 36.19269 | 13747 ft | 372 kts | 63° |
| 2026-05-07 14:07 | 35.54433 | 36.22147 | 14276 ft | 376 kts | 62° |
| 2026-05-07 14:07 | 35.55580 | 36.25051 | 14776 ft | 379 kts | 62° |
| 2026-05-07 14:07 | 35.56722 | 36.27954 | 15264 ft | 383 kts | 62° |
| 2026-05-07 14:07 | 35.57890 | 36.30927 | 15770 ft | 387 kts | 62° |
| 2026-05-07 14:08 | 35.59067 | 36.33921 | 16303 ft | 391 kts | 62° |
| 2026-05-07 14:08 | 35.60257 | 36.36949 | 16822 ft | 395 kts | 61° |
| 2026-05-07 14:08 | 35.61457 | 36.40012 | 17372 ft | 399 kts | 61° |
| 2026-05-07 14:08 | 35.62655 | 36.43069 | 17902 ft | 403 kts | 61° |
| 2026-05-07 14:09 | 35.63882 | 36.46203 | 18450 ft | 408 kts | 61° |
| 2026-05-07 14:09 | 35.65122 | 36.49373 | 18942 ft | 412 kts | 61° |
| 2026-05-07 14:09 | 35.66418 | 36.52531 | 19424 ft | 414 kts | 56° |
| 2026-05-07 14:09 | 35.68148 | 36.55276 | 19921 ft | 410 kts | 43° |
| 2026-05-07 14:10 | 35.70117 | 36.57830 | 20506 ft | 412 kts | 42° |
| 2026-05-07 14:10 | 35.72097 | 36.60406 | 21029 ft | 416 kts | 43° |
| 2026-05-07 14:10 | 35.74102 | 36.63042 | 21589 ft | 419 kts | 43° |
| 2026-05-07 14:10 | 35.76112 | 36.65681 | 22110 ft | 423 kts | 43° |
| 2026-05-07 14:11 | 35.78111 | 36.68292 | 22651 ft | 426 kts | 42° |
| 2026-05-07 14:11 | 35.80162 | 36.70976 | 23195 ft | 430 kts | 42° |
| 2026-05-07 14:11 | 35.82226 | 36.73687 | 23713 ft | 433 kts | 42° |
| 2026-05-07 14:11 | 35.84273 | 36.76378 | 24157 ft | 436 kts | 42° |
| 2026-05-07 14:12 | 35.86365 | 36.79126 | 24582 ft | 440 kts | 42° |
| 2026-05-07 14:12 | 35.88473 | 36.81895 | 25021 ft | 443 kts | 42° |
| 2026-05-07 14:12 | 35.90561 | 36.84645 | 25439 ft | 446 kts | 42° |
| 2026-05-07 14:12 | 35.92696 | 36.87458 | 25859 ft | 450 kts | 42° |
| 2026-05-07 14:13 | 35.94855 | 36.90304 | 26280 ft | 453 kts | 42° |
| 2026-05-07 14:13 | 35.97006 | 36.93142 | 26683 ft | 457 kts | 42° |
| 2026-05-07 14:13 | 35.99188 | 36.96024 | 27106 ft | 461 kts | 42° |
| 2026-05-07 14:13 | 36.01380 | 36.98921 | 27533 ft | 464 kts | 42° |
| 2026-05-07 14:14 | 36.03592 | 37.01849 | 27953 ft | 468 kts | 42° |
| 2026-05-07 14:14 | 36.05829 | 37.04810 | 28382 ft | 471 kts | 42° |
| 2026-05-07 14:14 | 36.08057 | 37.07764 | 28803 ft | 475 kts | 42° |
| 2026-05-07 14:14 | 36.10319 | 37.10765 | 29212 ft | 479 kts | 42° |
| 2026-05-07 14:15 | 36.12605 | 37.13800 | 29616 ft | 482 kts | 42° |
| 2026-05-07 14:15 | 36.14959 | 37.16775 | 29956 ft | 483 kts | 37° |
| 2026-05-07 14:15 | 36.17580 | 37.19273 | 30343 ft | 479 kts | 28° |
| 2026-05-07 14:15 | 36.20484 | 37.21314 | 30686 ft | 475 kts | 20° |
| 2026-05-07 14:16 | 36.23555 | 37.22809 | 31030 ft | 472 kts | 12° |
| 2026-05-07 14:16 | 36.26707 | 37.23883 | 31520 ft | 468 kts | 9° |
| 2026-05-07 14:16 | 36.29824 | 37.24938 | 32056 ft | 467 kts | 9° |
| 2026-05-07 14:16 | 36.32962 | 37.26021 | 32518 ft | 467 kts | 9° |
| 2026-05-07 14:17 | 36.36100 | 37.27089 | 33002 ft | 466 kts | 9° |
| 2026-05-07 14:17 | 36.39197 | 37.28130 | 33498 ft | 466 kts | 8° |
| 2026-05-07 14:17 | 36.42339 | 37.29195 | 33991 ft | 466 kts | 9° |
| 2026-05-07 14:17 | 36.45484 | 37.30271 | 34411 ft | 466 kts | 9° |
| 2026-05-07 14:18 | 36.48616 | 37.31340 | 34808 ft | 467 kts | 9° |
| 2026-05-07 14:18 | 36.51722 | 37.32395 | 35190 ft | 468 kts | 9° |
| 2026-05-07 14:18 | 36.54872 | 37.33468 | 35596 ft | 468 kts | 9° |
| 2026-05-07 14:18 | 36.58025 | 37.34547 | 36007 ft | 468 kts | 9° |
| 2026-05-07 14:19 | 36.61135 | 37.35611 | 36402 ft | 469 kts | 9° |
| 2026-05-07 14:19 | 36.64299 | 37.36692 | 36807 ft | 469 kts | 10° |
| 2026-05-07 14:19 | 36.67460 | 37.37773 | 37225 ft | 469 kts | 10° |
| 2026-05-07 14:19 | 36.70583 | 37.38844 | 37637 ft | 470 kts | 10° |
| 2026-05-07 14:20 | 36.73736 | 37.39925 | 38052 ft | 470 kts | 10° |
| 2026-05-07 14:20 | 36.76904 | 37.41012 | 38467 ft | 470 kts | 11° |
| 2026-05-07 14:20 | 36.80061 | 37.42096 | 38866 ft | 470 kts | 11° |
| 2026-05-07 14:20 | 36.83221 | 37.43183 | 39195 ft | 471 kts | 11° |
| 2026-05-07 14:21 | 36.86380 | 37.44270 | 39522 ft | 471 kts | 11° |
| 2026-05-07 14:21 | 36.89511 | 37.45348 | 39856 ft | 471 kts | 11° |
| 2026-05-07 14:21 | 36.92663 | 37.46479 | 40162 ft | 474 kts | 14° |
| 2026-05-07 14:21 | 36.95725 | 37.48110 | 40454 ft | 480 kts | 24° |
| 2026-05-07 14:22 | 36.98564 | 37.50350 | 40783 ft | 485 kts | 33° |
| 2026-05-07 14:22 | 37.01217 | 37.52986 | 41119 ft | 486 kts | 37° |
| 2026-05-07 14:22 | 37.03800 | 37.55722 | 41439 ft | 486 kts | 36° |
| 2026-05-07 14:22 | 37.06435 | 37.58306 | 41734 ft | 486 kts | 33° |
| 2026-05-07 14:23 | 37.09194 | 37.60828 | 42056 ft | 486 kts | 33° |
| 2026-05-07 14:23 | 37.11761 | 37.63265 | 42330 ft | 488 kts | 35° |
| 2026-05-07 14:23 | 37.14270 | 37.65783 | 42619 ft | 488 kts | 36° |
| 2026-05-07 14:23 | 37.16942 | 37.68453 | 42937 ft | 488 kts | 35° |
| 2026-05-07 14:24 | 37.19546 | 37.70967 | 43227 ft | 488 kts | 34° |
| 2026-05-07 14:24 | 37.22120 | 37.73446 | 43506 ft | 488 kts | 35° |
| 2026-05-07 14:24 | 37.24801 | 37.76094 | 43788 ft | 489 kts | 36° |
| 2026-05-07 14:24 | 37.27345 | 37.78632 | 44068 ft | 489 kts | 36° |
| 2026-05-07 14:25 | 37.30003 | 37.81241 | 44334 ft | 489 kts | 35° |
| 2026-05-07 14:25 | 37.32621 | 37.83790 | 44595 ft | 490 kts | 35° |
| 2026-05-07 14:25 | 37.35226 | 37.86353 | 44849 ft | 490 kts | 36° |
| 2026-05-07 14:25 | 37.37879 | 37.88990 | 45089 ft | 490 kts | 36° |
| 2026-05-07 14:26 | 37.40446 | 37.91530 | 45322 ft | 490 kts | 36° |
| 2026-05-07 14:26 | 37.43050 | 37.94089 | 45535 ft | 490 kts | 35° |
| 2026-05-07 14:26 | 37.45743 | 37.96744 | 45754 ft | 490 kts | 36° |
| 2026-05-07 14:26 | 37.48294 | 37.99277 | 45961 ft | 490 kts | 36° |
| 2026-05-07 14:27 | 37.50893 | 38.01859 | 46142 ft | 490 kts | 36° |
| 2026-05-07 14:27 | 37.53552 | 38.04476 | 46326 ft | 490 kts | 35° |
| 2026-05-07 14:27 | 37.56169 | 38.07036 | 46480 ft | 490 kts | 35° |
| 2026-05-07 14:27 | 37.58778 | 38.09606 | 46582 ft | 490 kts | 36° |
| 2026-05-07 14:28 | 37.61464 | 38.12272 | 46677 ft | 490 kts | 36° |
| 2026-05-07 14:28 | 37.66653 | 38.17400 | 46799 ft | 490 kts | 36° |
| 2026-05-07 14:29 | 37.71872 | 38.22568 | 46898 ft | 490 kts | 36° |
| 2026-05-07 14:29 | 37.77123 | 38.27782 | 47009 ft | 490 kts | 36° |
| 2026-05-07 14:30 | 37.82379 | 38.33004 | 47081 ft | 490 kts | 36° |
| 2026-05-07 14:30 | 37.87599 | 38.38207 | 47118 ft | 491 kts | 36° |
| 2026-05-07 14:31 | 37.92826 | 38.43419 | 47118 ft | 493 kts | 36° |
| 2026-05-07 14:31 | 37.98114 | 38.48711 | 47124 ft | 495 kts | 36° |
| 2026-05-07 14:32 | 38.03440 | 38.54043 | 47140 ft | 497 kts | 36° |
| 2026-05-07 14:32 | 38.08763 | 38.59386 | 47131 ft | 499 kts | 36° |
| 2026-05-07 14:33 | 38.14041 | 38.64694 | 47125 ft | 501 kts | 36° |
| 2026-05-07 14:33 | 38.19448 | 38.70140 | 47139 ft | 503 kts | 36° |
| 2026-05-07 14:34 | 38.24737 | 38.75480 | 47128 ft | 504 kts | 36° |
| 2026-05-07 14:34 | 38.30168 | 38.80977 | 47122 ft | 506 kts | 37° |
| 2026-05-07 14:35 | 38.35549 | 38.86475 | 47122 ft | 507 kts | 37° |
| 2026-05-07 14:35 | 38.40863 | 38.91887 | 47110 ft | 509 kts | 37° |
| 2026-05-07 14:36 | 38.46229 | 38.97381 | 47118 ft | 510 kts | 37° |
| 2026-05-07 14:36 | 38.51672 | 39.02886 | 47095 ft | 510 kts | 35° |
| 2026-05-07 14:37 | 38.57111 | 39.08443 | 47111 ft | 511 kts | 37° |
| 2026-05-07 14:37 | 38.65364 | 39.16820 | 47109 ft | 514 kts | 37° |
| 2026-05-07 14:38 | 38.70917 | 39.21872 | 47094 ft | 512 kts | 25° |
| 2026-05-07 14:38 | 38.77465 | 39.24921 | 47103 ft | 506 kts | 9° |
| 2026-05-07 14:39 | 38.84190 | 39.26407 | 47112 ft | 505 kts | 6° |
| 2026-05-07 14:39 | 38.90875 | 39.28364 | 47105 ft | 509 kts | 13° |
| 2026-05-07 14:40 | 38.97546 | 39.30563 | 47103 ft | 509 kts | 8° |
| 2026-05-07 14:40 | 39.04396 | 39.32462 | 47108 ft | 511 kts | 11° |
| 2026-05-07 14:41 | 39.11107 | 39.34658 | 47122 ft | 511 kts | 10° |
| 2026-05-07 14:41 | 39.17809 | 39.36569 | 47113 ft | 512 kts | 11° |
| 2026-05-07 14:42 | 39.24579 | 39.38731 | 47135 ft | 513 kts | 11° |
| 2026-05-07 14:42 | 39.31386 | 39.40745 | 47134 ft | 513 kts | 10° |
| 2026-05-07 14:43 | 39.38185 | 39.42868 | 47146 ft | 514 kts | 11° |
| 2026-05-07 14:43 | 39.44932 | 39.44917 | 47162 ft | 514 kts | 10° |
| 2026-05-07 14:44 | 39.51747 | 39.47019 | 47160 ft | 515 kts | 11° |
| 2026-05-07 14:44 | 39.57442 | 39.48780 | 47165 ft | 515 kts | 11° |
| 2026-05-07 14:45 | 39.65398 | 39.51225 | 47164 ft | 515 kts | 11° |
| 2026-05-07 14:45 | 39.71051 | 39.52963 | 47157 ft | 514 kts | 9° |
| 2026-05-07 14:46 | 39.77898 | 39.54335 | 47161 ft | 512 kts | 5° |
| 2026-05-07 14:46 | 39.84791 | 39.55744 | 47170 ft | 513 kts | 7° |
| 2026-05-07 14:47 | 39.91645 | 39.57163 | 47166 ft | 513 kts | 6° |
| 2026-05-07 14:47 | 39.98808 | 39.58600 | 47168 ft | 513 kts | 7° |
| 2026-05-07 14:48 | 40.05824 | 39.60066 | 47176 ft | 513 kts | 6° |
| 2026-05-07 14:48 | 40.12879 | 39.61493 | 47174 ft | 513 kts | 6° |
| 2026-05-07 14:49 | 40.19941 | 39.62965 | 47172 ft | 513 kts | 6° |
| 2026-05-07 14:49 | 40.26970 | 39.64403 | 47174 ft | 513 kts | 6° |
| 2026-05-07 14:50 | 40.34019 | 39.65869 | 47178 ft | 513 kts | 7° |
| 2026-05-07 14:50 | 40.41045 | 39.67320 | 47181 ft | 512 kts | 7° |
| 2026-05-07 14:51 | 40.48071 | 39.68782 | 47178 ft | 513 kts | 7° |
| 2026-05-07 14:51 | 40.55121 | 39.70248 | 47189 ft | 512 kts | 7° |
| 2026-05-07 14:52 | 40.62137 | 39.71712 | 47187 ft | 512 kts | 7° |
| 2026-05-07 14:52 | 40.69188 | 39.73185 | 47203 ft | 511 kts | 7° |
| 2026-05-07 14:53 | 40.75931 | 39.74598 | 47201 ft | 512 kts | 7° |
| 2026-05-07 14:53 | 40.82821 | 39.76044 | 47221 ft | 511 kts | 7° |
| 2026-05-07 14:54 | 40.89761 | 39.77504 | 47206 ft | 512 kts | 7° |
| 2026-05-07 14:54 | 40.96592 | 39.78909 | 47202 ft | 511 kts | 5° |
| 2026-05-07 14:55 | 41.03386 | 39.78652 | 47193 ft | 505 kts | 347° |
| 2026-05-07 14:55 | 41.09944 | 39.76338 | 47228 ft | 502 kts | 340° |
| 2026-05-07 14:56 | 41.16459 | 39.73907 | 47217 ft | 503 kts | 346° |
| 2026-05-07 14:56 | 41.23206 | 39.71987 | 47206 ft | 503 kts | 343° |
| 2026-05-07 14:57 | 41.29695 | 39.69647 | 47212 ft | 503 kts | 344° |
| 2026-05-07 14:57 | 41.36364 | 39.67622 | 47200 ft | 503 kts | 345° |
| 2026-05-07 14:58 | 41.43068 | 39.65314 | 47201 ft | 502 kts | 344° |
| 2026-05-07 14:58 | 41.49678 | 39.63206 | 47200 ft | 503 kts | 345° |
| 2026-05-07 14:59 | 41.56266 | 39.61000 | 47205 ft | 503 kts | 344° |
| 2026-05-07 14:59 | 41.62978 | 39.58797 | 47205 ft | 503 kts | 345° |
| 2026-05-07 15:00 | 41.69506 | 39.56635 | 47196 ft | 503 kts | 344° |
| 2026-05-07 15:00 | 41.76172 | 39.54417 | 47197 ft | 503 kts | 345° |
| 2026-05-07 15:01 | 41.82764 | 39.52235 | 47198 ft | 503 kts | 344° |
| 2026-05-07 15:01 | 41.89454 | 39.49997 | 47199 ft | 503 kts | 345° |
| 2026-05-07 15:02 | 41.96110 | 39.47783 | 47194 ft | 503 kts | 344° |
| 2026-05-07 15:02 | 42.02761 | 39.45551 | 47192 ft | 503 kts | 344° |
| 2026-05-07 15:03 | 42.09349 | 39.43348 | 47201 ft | 503 kts | 344° |
| 2026-05-07 15:03 | 42.16003 | 39.41175 | 47189 ft | 503 kts | 348° |
| 2026-05-07 15:04 | 42.22782 | 39.40846 | 47178 ft | 506 kts | 5° |
| 2026-05-07 15:04 | 42.29516 | 39.42587 | 47202 ft | 507 kts | 12° |
| 2026-05-07 15:05 | 42.36173 | 39.44373 | 47192 ft | 506 kts | 6° |
| 2026-05-07 15:05 | 42.43107 | 39.45599 | 47194 ft | 506 kts | 8° |
| 2026-05-07 15:06 | 42.49795 | 39.47304 | 47202 ft | 506 kts | 8° |
| 2026-05-07 15:06 | 42.56671 | 39.48656 | 47201 ft | 506 kts | 8° |
| 2026-05-07 15:07 | 42.63409 | 39.50262 | 47198 ft | 506 kts | 8° |
| 2026-05-07 15:07 | 42.70209 | 39.51704 | 47199 ft | 507 kts | 7° |
| 2026-05-07 15:08 | 42.76894 | 39.53225 | 47190 ft | 507 kts | 9° |
| 2026-05-07 15:08 | 42.83716 | 39.54737 | 47196 ft | 507 kts | 8° |
| 2026-05-07 15:09 | 42.90604 | 39.56274 | 47190 ft | 507 kts | 8° |
| 2026-05-07 15:09 | 42.97330 | 39.57790 | 47190 ft | 508 kts | 8° |
| 2026-05-07 15:10 | 43.04166 | 39.59312 | 47195 ft | 508 kts | 8° |
| 2026-05-07 15:10 | 43.10941 | 39.60849 | 47194 ft | 508 kts | 8° |
| 2026-05-07 15:11 | 43.17773 | 39.62380 | 47205 ft | 508 kts | 8° |
| 2026-05-07 15:11 | 43.24603 | 39.63932 | 47204 ft | 508 kts | 8° |
| 2026-05-07 15:12 | 43.31431 | 39.65473 | 47201 ft | 508 kts | 8° |
| 2026-05-07 15:12 | 43.38205 | 39.67015 | 47201 ft | 509 kts | 8° |
| 2026-05-07 15:13 | 43.45055 | 39.68573 | 47198 ft | 509 kts | 9° |
| 2026-05-07 15:13 | 43.51667 | 39.71422 | 47177 ft | 510 kts | 26° |
| 2026-05-07 15:14 | 43.57372 | 39.76773 | 47187 ft | 510 kts | 43° |
| 2026-05-07 15:14 | 43.61685 | 39.84125 | 47194 ft | 509 kts | 60° |
| 2026-05-07 15:15 | 43.64300 | 39.92770 | 47202 ft | 508 kts | 74° |
| 2026-05-07 15:15 | 43.66102 | 40.01998 | 47201 ft | 509 kts | 75° |
| 2026-05-07 15:16 | 43.68586 | 40.11035 | 47194 ft | 511 kts | 64° |
| 2026-05-07 15:16 | 43.71761 | 40.19536 | 47188 ft | 512 kts | 64° |
| 2026-05-07 15:17 | 43.74467 | 40.28423 | 47197 ft | 512 kts | 69° |
| 2026-05-07 15:17 | 43.77315 | 40.37113 | 47195 ft | 514 kts | 64° |
| 2026-05-07 15:18 | 43.80124 | 40.45830 | 47200 ft | 514 kts | 68° |
| 2026-05-07 15:18 | 43.82897 | 40.54643 | 47193 ft | 516 kts | 65° |
| 2026-05-07 15:19 | 43.85810 | 40.63600 | 47195 ft | 516 kts | 67° |
| 2026-05-07 15:19 | 43.88146 | 40.72542 | 47174 ft | 515 kts | 78° |
| 2026-05-07 15:20 | 43.88865 | 40.82242 | 47194 ft | 511 kts | 89° |
| 2026-05-07 15:20 | 43.88932 | 40.91895 | 47181 ft | 511 kts | 88° |
| 2026-05-07 15:21 | 43.89539 | 41.01350 | 47188 ft | 511 kts | 86° |
| 2026-05-07 15:21 | 43.89830 | 41.10987 | 47186 ft | 511 kts | 89° |
| 2026-05-07 15:22 | 43.90278 | 41.20541 | 47181 ft | 511 kts | 86° |
| 2026-05-07 15:22 | 43.90649 | 41.30107 | 47182 ft | 511 kts | 89° |
| 2026-05-07 15:23 | 43.91015 | 41.39666 | 47181 ft | 512 kts | 86° |
| 2026-05-07 15:23 | 43.91415 | 41.49398 | 47176 ft | 512 kts | 88° |
| 2026-05-07 15:24 | 43.91748 | 41.58970 | 47167 ft | 513 kts | 87° |
| 2026-05-07 15:24 | 43.92119 | 41.68827 | 47171 ft | 513 kts | 88° |
| 2026-05-07 15:25 | 43.92430 | 41.78427 | 47168 ft | 513 kts | 88° |
| 2026-05-07 15:25 | 43.92769 | 41.87956 | 47171 ft | 512 kts | 88° |
| 2026-05-07 15:26 | 43.93077 | 41.97756 | 47168 ft | 512 kts | 88° |
| 2026-05-07 15:26 | 43.93396 | 42.07362 | 47165 ft | 512 kts | 88° |
| 2026-05-07 15:27 | 43.93686 | 42.16902 | 47162 ft | 512 kts | 88° |
| 2026-05-07 15:27 | 43.93982 | 42.26505 | 47158 ft | 512 kts | 88° |
| 2026-05-07 15:28 | 43.94265 | 42.36192 | 47166 ft | 513 kts | 88° |
| 2026-05-07 15:28 | 43.94546 | 42.45928 | 47159 ft | 513 kts | 88° |
| 2026-05-07 15:29 | 43.94811 | 42.55515 | 47153 ft | 512 kts | 88° |
| 2026-05-07 15:29 | 43.95012 | 42.63286 | 47149 ft | 512 kts | 90° |
| 2026-05-07 15:30 | 43.95043 | 42.72987 | 47162 ft | 512 kts | 90° |
| 2026-05-07 15:30 | 43.95115 | 42.82664 | 47150 ft | 512 kts | 90° |
| 2026-05-07 15:31 | 43.95127 | 42.92326 | 47135 ft | 511 kts | 90° |
| 2026-05-07 15:31 | 43.95172 | 43.02032 | 47131 ft | 510 kts | 90° |
| 2026-05-07 15:32 | 43.95178 | 43.11587 | 47123 ft | 509 kts | 90° |
| 2026-05-07 15:32 | 43.95198 | 43.21104 | 47123 ft | 509 kts | 91° |
| 2026-05-07 15:33 | 43.95196 | 43.30715 | 47121 ft | 509 kts | 91° |
| 2026-05-07 15:33 | 43.95195 | 43.40093 | 47111 ft | 509 kts | 91° |
| 2026-05-07 15:34 | 43.95180 | 43.49620 | 47106 ft | 509 kts | 91° |
| 2026-05-07 15:34 | 43.95160 | 43.59256 | 47099 ft | 509 kts | 91° |
| 2026-05-07 15:35 | 43.95131 | 43.68895 | 47089 ft | 510 kts | 91° |
| 2026-05-07 15:35 | 43.95094 | 43.78513 | 47089 ft | 510 kts | 91° |
| 2026-05-07 15:36 | 43.95050 | 43.88049 | 47083 ft | 510 kts | 91° |
| 2026-05-07 15:36 | 43.94996 | 43.97692 | 47079 ft | 510 kts | 91° |
| 2026-05-07 15:37 | 43.94935 | 44.07360 | 47084 ft | 510 kts | 91° |
| 2026-05-07 15:37 | 43.94866 | 44.16929 | 47087 ft | 511 kts | 91° |
| 2026-05-07 15:38 | 43.94789 | 44.26540 | 47086 ft | 511 kts | 92° |
| 2026-05-07 15:38 | 43.94702 | 44.36319 | 47088 ft | 511 kts | 92° |
| 2026-05-07 15:39 | 43.94609 | 44.45925 | 47089 ft | 512 kts | 92° |
| 2026-05-07 15:39 | 43.94508 | 44.55502 | 47093 ft | 512 kts | 92° |
| 2026-05-07 15:40 | 43.94398 | 44.65098 | 47091 ft | 512 kts | 92° |
| 2026-05-07 15:40 | 43.94280 | 44.74805 | 47086 ft | 513 kts | 92° |
| 2026-05-07 15:41 | 43.94153 | 44.84503 | 47092 ft | 513 kts | 92° |
| 2026-05-07 15:41 | 43.94019 | 44.94112 | 47082 ft | 513 kts | 92° |
| 2026-05-07 15:42 | 43.93876 | 45.03800 | 47082 ft | 514 kts | 92° |
| 2026-05-07 15:42 | 43.93726 | 45.13426 | 47077 ft | 514 kts | 92° |
| 2026-05-07 15:43 | 43.93566 | 45.23128 | 47076 ft | 514 kts | 93° |
| 2026-05-07 15:43 | 43.93399 | 45.32784 | 47068 ft | 515 kts | 93° |
| 2026-05-07 15:44 | 43.93221 | 45.42594 | 47063 ft | 515 kts | 93° |
| 2026-05-07 15:44 | 43.93036 | 45.52314 | 47059 ft | 515 kts | 93° |
| 2026-05-07 15:45 | 43.92847 | 45.61856 | 47058 ft | 516 kts | 93° |
| 2026-05-07 15:45 | 43.92644 | 45.71683 | 47055 ft | 516 kts | 93° |
| 2026-05-07 15:46 | 43.92328 | 45.86198 | 47050 ft | 517 kts | 93° |
| 2026-05-07 15:47 | 43.91652 | 45.95886 | 47072 ft | 514 kts | 101° |
| 2026-05-07 15:47 | 43.90550 | 46.05468 | 47054 ft | 515 kts | 99° |
| 2026-05-07 15:48 | 43.89613 | 46.15136 | 47061 ft | 515 kts | 100° |
| 2026-05-07 15:48 | 43.88535 | 46.24667 | 47052 ft | 516 kts | 100° |
| 2026-05-07 15:49 | 43.87553 | 46.34249 | 47048 ft | 516 kts | 100° |
| 2026-05-07 15:49 | 43.86481 | 46.43894 | 47045 ft | 517 kts | 101° |
| 2026-05-07 15:50 | 43.85464 | 46.53378 | 47045 ft | 517 kts | 100° |
| 2026-05-07 15:50 | 43.84410 | 46.63100 | 47030 ft | 518 kts | 98° |
| 2026-05-07 15:51 | 43.84580 | 46.72786 | 47027 ft | 523 kts | 81° |
| 2026-05-07 15:51 | 43.86710 | 46.82030 | 47036 ft | 525 kts | 64° |
| 2026-05-07 15:52 | 43.90397 | 46.90523 | 47047 ft | 526 kts | 57° |
| 2026-05-07 15:52 | 43.94164 | 46.99005 | 47026 ft | 526 kts | 63° |
| 2026-05-07 15:53 | 43.97157 | 47.07847 | 47039 ft | 526 kts | 66° |
| 2026-05-07 15:53 | 44.00537 | 47.16643 | 47034 ft | 527 kts | 60° |
| 2026-05-07 15:54 | 44.03806 | 47.25420 | 47031 ft | 527 kts | 65° |
| 2026-05-07 15:54 | 44.07082 | 47.34340 | 47027 ft | 528 kts | 62° |
| 2026-05-07 15:55 | 44.10425 | 47.43193 | 47026 ft | 528 kts | 64° |
| 2026-05-07 15:55 | 44.13626 | 47.52044 | 47019 ft | 528 kts | 63° |
| 2026-05-07 15:56 | 44.16961 | 47.60919 | 47019 ft | 528 kts | 64° |
| 2026-05-07 15:56 | 44.20163 | 47.69797 | 47017 ft | 529 kts | 63° |
| 2026-05-07 15:57 | 44.23495 | 47.78779 | 47013 ft | 529 kts | 64° |
| 2026-05-07 15:57 | 44.26651 | 47.87522 | 47015 ft | 529 kts | 64° |
| 2026-05-07 15:58 | 44.29981 | 47.96507 | 46997 ft | 530 kts | 60° |
| 2026-05-07 15:58 | 44.34335 | 48.04320 | 46987 ft | 530 kts | 43° |
| 2026-05-07 15:59 | 44.40155 | 48.10214 | 46988 ft | 527 kts | 26° |
| 2026-05-07 15:59 | 44.46802 | 48.13544 | 46993 ft | 523 kts | 9° |
| 2026-05-07 16:00 | 44.53834 | 48.14125 | 46995 ft | 517 kts | 352° |
| 2026-05-07 16:00 | 44.60729 | 48.12301 | 47012 ft | 513 kts | 344° |
| 2026-05-07 16:01 | 44.67481 | 48.10283 | 46988 ft | 516 kts | 349° |
| 2026-05-07 16:01 | 44.74527 | 48.09813 | 46982 ft | 519 kts | 359° |
| 2026-05-07 16:02 | 44.81544 | 48.09913 | 46975 ft | 518 kts | 355° |
| 2026-05-07 16:02 | 44.88517 | 48.09169 | 46983 ft | 517 kts | 354° |
| 2026-05-07 16:03 | 44.95656 | 48.08956 | 46971 ft | 518 kts | 356° |
| 2026-05-07 16:03 | 45.02635 | 48.08427 | 46973 ft | 517 kts | 354° |
| 2026-05-07 16:04 | 45.09641 | 48.08066 | 46972 ft | 518 kts | 356° |
| 2026-05-07 16:04 | 45.16693 | 48.07642 | 46966 ft | 517 kts | 355° |
| 2026-05-07 16:05 | 45.23678 | 48.07210 | 46959 ft | 518 kts | 356° |
| 2026-05-07 16:05 | 45.30733 | 48.06823 | 46952 ft | 518 kts | 355° |
| 2026-05-07 16:06 | 45.37787 | 48.06368 | 46948 ft | 518 kts | 356° |
| 2026-05-07 16:06 | 45.44851 | 48.05980 | 46941 ft | 518 kts | 355° |
| 2026-05-07 16:07 | 45.51842 | 48.05534 | 46932 ft | 518 kts | 356° |
| 2026-05-07 16:07 | 45.58892 | 48.05134 | 46929 ft | 518 kts | 356° |
| 2026-05-07 16:08 | 45.65844 | 48.04699 | 46933 ft | 518 kts | 356° |
| 2026-05-07 16:08 | 45.73007 | 48.04280 | 46927 ft | 518 kts | 356° |
| 2026-05-07 16:09 | 45.79999 | 48.03849 | 46923 ft | 518 kts | 356° |
| 2026-05-07 16:09 | 45.86997 | 48.03431 | 46924 ft | 517 kts | 356° |
| 2026-05-07 16:10 | 45.94105 | 48.02996 | 46915 ft | 517 kts | 356° |
| 2026-05-07 16:10 | 46.01047 | 48.02575 | 46917 ft | 517 kts | 356° |
| 2026-05-07 16:11 | 46.07924 | 48.02155 | 46917 ft | 517 kts | 356° |
| 2026-05-07 16:11 | 46.14914 | 48.01728 | 46917 ft | 517 kts | 356° |
| 2026-05-07 16:12 | 46.21956 | 48.01266 | 46913 ft | 516 kts | 354° |
| 2026-05-07 16:12 | 46.28773 | 47.99033 | 46894 ft | 511 kts | 336° |
| 2026-05-07 16:13 | 46.34730 | 47.94142 | 46905 ft | 506 kts | 320° |
| 2026-05-07 16:13 | 46.39751 | 47.87299 | 46921 ft | 503 kts | 312° |
| 2026-05-07 16:14 | 46.44701 | 47.80384 | 46900 ft | 505 kts | 318° |
| 2026-05-07 16:14 | 46.50053 | 47.74378 | 46908 ft | 506 kts | 320° |
| 2026-05-07 16:15 | 46.55276 | 47.67723 | 46903 ft | 505 kts | 316° |
| 2026-05-07 16:15 | 46.60498 | 47.61416 | 46914 ft | 506 kts | 320° |
| 2026-05-07 16:16 | 46.65756 | 47.54919 | 46911 ft | 505 kts | 316° |
| 2026-05-07 16:16 | 46.70957 | 47.48455 | 46917 ft | 506 kts | 319° |
| 2026-05-07 16:17 | 46.76230 | 47.41990 | 46916 ft | 506 kts | 317° |
| 2026-05-07 16:17 | 46.81361 | 47.35539 | 46910 ft | 506 kts | 318° |
| 2026-05-07 16:18 | 46.85773 | 47.30120 | 46915 ft | 506 kts | 317° |
| 2026-05-07 16:18 | 46.90943 | 47.23609 | 46925 ft | 506 kts | 317° |
| 2026-05-07 16:19 | 46.97112 | 47.15929 | 46928 ft | 506 kts | 318° |
| 2026-05-07 16:19 | 47.02266 | 47.09428 | 46916 ft | 506 kts | 317° |
| 2026-05-07 16:20 | 47.07538 | 47.02811 | 46923 ft | 507 kts | 318° |
| 2026-05-07 16:20 | 47.11873 | 46.97334 | 46931 ft | 507 kts | 318° |
| 2026-05-07 16:21 | 47.17109 | 46.90708 | 46935 ft | 507 kts | 317° |
| 2026-05-07 16:21 | 47.22332 | 46.84087 | 46935 ft | 507 kts | 317° |
| 2026-05-07 16:22 | 47.27432 | 46.77596 | 46932 ft | 507 kts | 317° |
| 2026-05-07 16:22 | 47.32664 | 46.70930 | 46932 ft | 507 kts | 317° |
| 2026-05-07 16:23 | 47.37890 | 46.64243 | 46937 ft | 507 kts | 318° |
| 2026-05-07 16:23 | 47.43031 | 46.57655 | 46939 ft | 507 kts | 317° |
| 2026-05-07 16:24 | 47.48284 | 46.50899 | 46943 ft | 507 kts | 317° |
| 2026-05-07 16:24 | 47.53510 | 46.44163 | 46941 ft | 507 kts | 317° |
| 2026-05-07 16:25 | 47.58667 | 46.37496 | 46949 ft | 507 kts | 317° |
| 2026-05-07 16:25 | 47.63988 | 46.30598 | 46939 ft | 507 kts | 317° |
| 2026-05-07 16:26 | 47.69308 | 46.23682 | 46948 ft | 506 kts | 317° |
| 2026-05-07 16:26 | 47.74582 | 46.16807 | 46946 ft | 506 kts | 317° |
| 2026-05-07 16:27 | 47.79883 | 46.09878 | 46952 ft | 506 kts | 317° |
| 2026-05-07 16:27 | 47.85167 | 46.02949 | 46949 ft | 506 kts | 317° |
| 2026-05-07 16:28 | 47.90420 | 45.96046 | 46951 ft | 506 kts | 317° |
| 2026-05-07 16:28 | 47.95715 | 45.89064 | 46953 ft | 506 kts | 317° |
| 2026-05-07 16:29 | 48.00969 | 45.82118 | 46954 ft | 506 kts | 317° |
| 2026-05-07 16:29 | 48.06228 | 45.75145 | 46960 ft | 506 kts | 317° |
| 2026-05-07 16:30 | 48.11465 | 45.68181 | 46954 ft | 506 kts | 317° |
| 2026-05-07 16:30 | 48.16728 | 45.61164 | 46958 ft | 506 kts | 317° |
| 2026-05-07 16:31 | 48.21968 | 45.54155 | 46958 ft | 506 kts | 317° |
| 2026-05-07 16:31 | 48.27219 | 45.47114 | 46962 ft | 506 kts | 317° |
| 2026-05-07 16:32 | 48.32487 | 45.40028 | 46964 ft | 506 kts | 317° |
| 2026-05-07 16:32 | 48.37706 | 45.32988 | 46963 ft | 506 kts | 317° |
| 2026-05-07 16:33 | 48.43392 | 45.26797 | 46947 ft | 507 kts | 330° |
| 2026-05-07 16:33 | 48.49736 | 45.21976 | 46967 ft | 507 kts | 332° |
| 2026-05-07 16:34 | 48.55864 | 45.16785 | 46965 ft | 507 kts | 330° |
| 2026-05-07 16:34 | 48.62072 | 45.11805 | 46969 ft | 507 kts | 332° |
| 2026-05-07 16:35 | 48.68272 | 45.06674 | 46965 ft | 507 kts | 330° |
| 2026-05-07 16:35 | 48.74497 | 45.01567 | 46962 ft | 508 kts | 331° |
| 2026-05-07 16:36 | 48.80685 | 44.96463 | 46962 ft | 508 kts | 330° |
| 2026-05-07 16:36 | 48.86907 | 44.91306 | 46966 ft | 508 kts | 331° |
| 2026-05-07 16:37 | 48.93079 | 44.86194 | 46964 ft | 508 kts | 330° |
| 2026-05-07 16:37 | 48.99303 | 44.81006 | 46967 ft | 512 kts | 330° |
| 2026-05-07 16:38 | 49.05601 | 44.75756 | 46974 ft | 517 kts | 330° |
| 2026-05-07 16:38 | 49.11916 | 44.70467 | 46967 ft | 521 kts | 330° |
| 2026-05-07 16:39 | 49.18303 | 44.65107 | 46971 ft | 524 kts | 330° |
| 2026-05-07 16:39 | 49.24683 | 44.59734 | 46968 ft | 526 kts | 330° |
| 2026-05-07 16:40 | 49.31116 | 44.54303 | 46973 ft | 528 kts | 330° |
| 2026-05-07 16:40 | 49.37577 | 44.48829 | 46970 ft | 529 kts | 330° |
| 2026-05-07 16:41 | 49.43989 | 44.43382 | 46973 ft | 527 kts | 330° |
| 2026-05-07 16:41 | 49.50406 | 44.37913 | 46967 ft | 527 kts | 330° |
| 2026-05-07 16:42 | 49.57162 | 44.33538 | 46956 ft | 529 kts | 345° |
| 2026-05-07 16:42 | 49.64429 | 44.32277 | 46964 ft | 530 kts | 1° |
| 2026-05-07 16:43 | 49.71802 | 44.33443 | 46969 ft | 531 kts | 7° |
| 2026-05-07 16:43 | 49.79104 | 44.34637 | 46965 ft | 530 kts | 2° |
| 2026-05-07 16:44 | 49.86486 | 44.34893 | 46965 ft | 530 kts | 2° |
| 2026-05-07 16:44 | 49.93852 | 44.35799 | 46969 ft | 531 kts | 3° |
| 2026-05-07 16:45 | 50.01214 | 44.36309 | 46967 ft | 531 kts | 2° |
| 2026-05-07 16:45 | 50.08610 | 44.37057 | 46974 ft | 531 kts | 3° |
| 2026-05-07 16:46 | 50.15956 | 44.37680 | 46972 ft | 531 kts | 2° |
| 2026-05-07 16:46 | 50.23363 | 44.38363 | 46967 ft | 531 kts | 3° |
| 2026-05-07 16:47 | 50.30710 | 44.39030 | 46969 ft | 532 kts | 2° |
| 2026-05-07 16:47 | 50.38131 | 44.39700 | 46966 ft | 532 kts | 3° |
| 2026-05-07 16:48 | 50.45495 | 44.40380 | 46969 ft | 532 kts | 2° |
| 2026-05-07 16:48 | 50.52897 | 44.41050 | 46965 ft | 532 kts | 3° |
| 2026-05-07 16:49 | 50.60273 | 44.41734 | 46970 ft | 532 kts | 3° |
| 2026-05-07 16:49 | 50.67676 | 44.42412 | 46968 ft | 532 kts | 3° |
| 2026-05-07 16:50 | 50.75093 | 44.43100 | 46967 ft | 532 kts | 3° |
| 2026-05-07 16:50 | 50.82457 | 44.43782 | 46965 ft | 532 kts | 3° |
| 2026-05-07 16:51 | 50.89868 | 44.44472 | 46970 ft | 532 kts | 3° |
| 2026-05-07 16:51 | 50.97229 | 44.45159 | 46974 ft | 532 kts | 3° |
| 2026-05-07 16:52 | 51.04650 | 44.45854 | 46969 ft | 533 kts | 3° |
| 2026-05-07 16:52 | 51.12013 | 44.46499 | 46957 ft | 532 kts | 0° |
| 2026-05-07 16:53 | 51.19334 | 44.44988 | 46956 ft | 530 kts | 343° |
| 2026-05-07 16:53 | 51.26180 | 44.40562 | 46973 ft | 529 kts | 333° |
| 2026-05-07 16:54 | 51.32750 | 44.35386 | 46967 ft | 530 kts | 335° |
| 2026-05-07 16:54 | 51.39641 | 44.31086 | 46972 ft | 530 kts | 338° |
| 2026-05-07 16:55 | 51.46366 | 44.26363 | 46960 ft | 530 kts | 335° |
| 2026-05-07 16:55 | 51.53195 | 44.21789 | 46966 ft | 530 kts | 337° |
| 2026-05-07 16:56 | 51.59960 | 44.17159 | 46970 ft | 530 kts | 335° |
| 2026-05-07 16:56 | 51.70128 | 44.10222 | 46977 ft | 530 kts | 336° |
| 2026-05-07 16:57 | 51.76938 | 44.05489 | 46972 ft | 530 kts | 336° |
| 2026-05-07 16:57 | 51.83681 | 44.00864 | 46967 ft | 530 kts | 336° |
| 2026-05-07 16:58 | 51.90474 | 43.96146 | 46969 ft | 530 kts | 336° |
| 2026-05-07 16:58 | 51.97243 | 43.91452 | 46972 ft | 530 kts | 336° |
| 2026-05-07 16:59 | 52.04047 | 43.86706 | 46960 ft | 530 kts | 335° |
| 2026-05-07 16:59 | 52.10792 | 43.81992 | 46967 ft | 529 kts | 336° |
| 2026-05-07 17:00 | 52.17535 | 43.77261 | 46960 ft | 529 kts | 335° |
| 2026-05-07 17:00 | 52.24286 | 43.72509 | 46956 ft | 529 kts | 335° |
| 2026-05-07 17:01 | 52.31054 | 43.67729 | 46970 ft | 529 kts | 335° |
| 2026-05-07 17:01 | 52.37823 | 43.62933 | 46967 ft | 528 kts | 335° |
| 2026-05-07 17:02 | 52.44560 | 43.58144 | 46965 ft | 528 kts | 335° |
| 2026-05-07 17:02 | 52.51271 | 43.53357 | 46960 ft | 528 kts | 335° |
| 2026-05-07 17:03 | 52.58024 | 43.48523 | 46960 ft | 527 kts | 335° |
| 2026-05-07 17:03 | 52.64735 | 43.43704 | 46962 ft | 527 kts | 335° |
| 2026-05-07 17:04 | 52.71456 | 43.38861 | 46963 ft | 527 kts | 335° |
| 2026-05-07 17:04 | 52.78150 | 43.34022 | 46954 ft | 527 kts | 335° |
| 2026-05-07 17:05 | 52.84895 | 43.29128 | 46953 ft | 526 kts | 335° |
| 2026-05-07 17:05 | 52.91589 | 43.24256 | 46951 ft | 526 kts | 335° |
| 2026-05-07 17:06 | 52.98261 | 43.19383 | 46955 ft | 526 kts | 335° |
| 2026-05-07 17:06 | 53.03841 | 43.15295 | 46951 ft | 525 kts | 335° |
| 2026-05-07 17:07 | 53.10503 | 43.10399 | 46948 ft | 525 kts | 335° |
| 2026-05-07 17:07 | 53.18288 | 43.04656 | 46950 ft | 525 kts | 335° |
| 2026-05-07 17:08 | 53.23884 | 43.00513 | 46943 ft | 525 kts | 335° |
| 2026-05-07 17:08 | 53.30550 | 42.95564 | 46945 ft | 525 kts | 335° |
| 2026-05-07 17:09 | 53.37188 | 42.90618 | 46944 ft | 524 kts | 335° |
| 2026-05-07 17:09 | 53.43657 | 42.85782 | 46936 ft | 524 kts | 334° |
| 2026-05-07 17:10 | 53.50114 | 42.80939 | 46932 ft | 524 kts | 334° |
| 2026-05-07 17:10 | 53.56532 | 42.76108 | 46934 ft | 524 kts | 334° |
| 2026-05-07 17:11 | 53.63012 | 42.71216 | 46935 ft | 524 kts | 334° |
| 2026-05-07 17:11 | 53.69555 | 42.66386 | 46924 ft | 524 kts | 337° |
| 2026-05-07 17:12 | 53.76336 | 42.61802 | 46938 ft | 523 kts | 336° |
| 2026-05-07 17:12 | 53.83105 | 42.57141 | 46933 ft | 524 kts | 336° |
| 2026-05-07 17:13 | 53.89844 | 42.52541 | 46941 ft | 524 kts | 336° |
| 2026-05-07 17:13 | 53.96611 | 42.47864 | 46935 ft | 524 kts | 336° |
| 2026-05-07 17:14 | 54.03348 | 42.43220 | 46931 ft | 524 kts | 336° |
| 2026-05-07 17:14 | 54.10074 | 42.38549 | 46932 ft | 524 kts | 336° |
| 2026-05-07 17:15 | 54.16838 | 42.33846 | 46923 ft | 524 kts | 336° |
| 2026-05-07 17:15 | 54.23552 | 42.29155 | 46923 ft | 524 kts | 336° |
| 2026-05-07 17:16 | 54.30336 | 42.24402 | 46922 ft | 524 kts | 336° |
| 2026-05-07 17:16 | 54.37035 | 42.19690 | 46922 ft | 524 kts | 336° |
| 2026-05-07 17:17 | 54.43799 | 42.14916 | 46920 ft | 524 kts | 336° |
| 2026-05-07 17:17 | 54.50503 | 42.10168 | 46916 ft | 523 kts | 336° |
| 2026-05-07 17:18 | 54.57246 | 42.05374 | 46920 ft | 523 kts | 336° |
| 2026-05-07 17:18 | 54.63742 | 42.00740 | 46909 ft | 524 kts | 336° |
| 2026-05-07 17:19 | 54.70317 | 41.96033 | 46906 ft | 524 kts | 336° |
| 2026-05-07 17:19 | 54.76931 | 41.91281 | 46904 ft | 524 kts | 335° |
| 2026-05-07 17:20 | 54.83473 | 41.86565 | 46910 ft | 523 kts | 335° |
| 2026-05-07 17:20 | 54.89980 | 41.81857 | 46912 ft | 523 kts | 335° |
| 2026-05-07 17:21 | 54.96690 | 41.76986 | 46907 ft | 523 kts | 335° |
| 2026-05-07 17:21 | 55.03178 | 41.72257 | 46909 ft | 524 kts | 335° |
| 2026-05-07 17:22 | 55.09758 | 41.67446 | 46904 ft | 524 kts | 335° |
| 2026-05-07 17:22 | 55.16349 | 41.62609 | 46906 ft | 524 kts | 335° |
| 2026-05-07 17:23 | 55.23139 | 41.57607 | 46898 ft | 524 kts | 335° |
| 2026-05-07 17:23 | 55.29875 | 41.52628 | 46901 ft | 524 kts | 335° |
| 2026-05-07 17:24 | 55.36549 | 41.47675 | 46900 ft | 524 kts | 335° |
| 2026-05-07 17:24 | 55.43274 | 41.42667 | 46894 ft | 524 kts | 335° |
| 2026-05-07 17:25 | 55.49999 | 41.37639 | 46894 ft | 524 kts | 335° |
| 2026-05-07 17:25 | 55.56680 | 41.32627 | 46895 ft | 524 kts | 335° |
| 2026-05-07 17:26 | 55.63412 | 41.27557 | 46893 ft | 524 kts | 335° |
| 2026-05-07 17:26 | 55.70122 | 41.22484 | 46902 ft | 524 kts | 335° |
| 2026-05-07 17:27 | 55.76799 | 41.17419 | 46897 ft | 524 kts | 335° |
| 2026-05-07 17:27 | 55.83506 | 41.12310 | 46901 ft | 524 kts | 334° |
| 2026-05-07 17:28 | 55.90185 | 41.07204 | 46897 ft | 524 kts | 334° |
| 2026-05-07 17:28 | 55.96903 | 41.02048 | 46901 ft | 524 kts | 334° |
| 2026-05-07 17:29 | 56.03572 | 40.96911 | 46892 ft | 524 kts | 334° |
| 2026-05-07 17:29 | 56.10277 | 40.91727 | 46898 ft | 524 kts | 334° |
| 2026-05-07 17:30 | 56.16951 | 40.86548 | 46897 ft | 524 kts | 334° |
| 2026-05-07 17:30 | 56.23613 | 40.81356 | 46898 ft | 523 kts | 334° |
| 2026-05-07 17:31 | 56.30314 | 40.76116 | 46906 ft | 523 kts | 334° |
| 2026-05-07 17:31 | 56.36990 | 40.70875 | 46908 ft | 523 kts | 334° |
| 2026-05-07 17:32 | 56.43363 | 40.65853 | 46905 ft | 523 kts | 334° |
| 2026-05-07 17:32 | 56.48854 | 40.62007 | 46903 ft | 525 kts | 340° |
| 2026-05-07 17:33 | 56.56763 | 40.57602 | 46914 ft | 525 kts | 339° |
| 2026-05-07 17:33 | 56.63512 | 40.53544 | 46912 ft | 525 kts | 339° |
| 2026-05-07 17:34 | 56.70285 | 40.49687 | 46920 ft | 525 kts | 340° |
| 2026-05-07 17:34 | 56.77082 | 40.45639 | 46922 ft | 525 kts | 339° |
| 2026-05-07 17:35 | 56.83848 | 40.41698 | 46916 ft | 526 kts | 340° |
| 2026-05-07 17:35 | 56.90602 | 40.37691 | 46929 ft | 526 kts | 339° |
| 2026-05-07 17:36 | 56.97434 | 40.33646 | 46936 ft | 526 kts | 339° |
| 2026-05-07 17:36 | 57.04196 | 40.29918 | 46940 ft | 527 kts | 341° |
| 2026-05-07 17:37 | 57.11071 | 40.26128 | 46938 ft | 527 kts | 341° |
| 2026-05-07 17:37 | 57.18052 | 40.22382 | 46953 ft | 527 kts | 341° |
| 2026-05-07 17:38 | 57.24882 | 40.18627 | 46956 ft | 527 kts | 340° |
| 2026-05-07 17:38 | 57.31934 | 40.14781 | 46965 ft | 527 kts | 341° |
| 2026-05-07 17:39 | 57.39010 | 40.11307 | 46971 ft | 528 kts | 343° |
| 2026-05-07 17:39 | 57.46115 | 40.07828 | 46946 ft | 526 kts | 338° |
| 2026-05-07 17:40 | 57.52554 | 40.01595 | 46955 ft | 518 kts | 321° |
| 2026-05-07 17:40 | 57.57623 | 39.92338 | 46958 ft | 511 kts | 304° |
| 2026-05-07 17:41 | 57.61058 | 39.80807 | 46986 ft | 506 kts | 291° |
| 2026-05-07 17:41 | 57.63717 | 39.68688 | 46976 ft | 507 kts | 291° |
| 2026-05-07 17:42 | 57.66981 | 39.56956 | 46961 ft | 509 kts | 300° |
| 2026-05-07 17:42 | 57.70803 | 39.45879 | 46966 ft | 509 kts | 299° |
| 2026-05-07 17:43 | 57.74207 | 39.34236 | 46973 ft | 508 kts | 297° |
| 2026-05-07 17:43 | 57.77810 | 39.22866 | 46983 ft | 509 kts | 298° |
| 2026-05-07 17:44 | 57.81304 | 39.11288 | 46982 ft | 508 kts | 297° |
| 2026-05-07 17:44 | 57.84818 | 38.99814 | 46985 ft | 509 kts | 298° |
| 2026-05-07 17:45 | 57.88301 | 38.88323 | 46984 ft | 509 kts | 297° |
| 2026-05-07 17:45 | 57.91657 | 38.77174 | 46978 ft | 509 kts | 297° |
| 2026-05-07 17:46 | 57.95051 | 38.65907 | 46978 ft | 509 kts | 297° |
| 2026-05-07 17:46 | 57.98544 | 38.54177 | 46987 ft | 509 kts | 297° |
| 2026-05-07 17:47 | 58.02017 | 38.42524 | 46991 ft | 509 kts | 297° |
| 2026-05-07 17:47 | 58.05448 | 38.30903 | 46989 ft | 508 kts | 297° |
| 2026-05-07 17:48 | 58.08897 | 38.19199 | 46992 ft | 508 kts | 297° |
| 2026-05-07 17:48 | 58.12310 | 38.07536 | 46991 ft | 508 kts | 296° |
| 2026-05-07 17:49 | 58.15724 | 37.95821 | 46998 ft | 508 kts | 296° |
| 2026-05-07 17:49 | 58.19109 | 37.84142 | 46992 ft | 508 kts | 296° |
| 2026-05-07 17:50 | 58.22514 | 37.72339 | 46996 ft | 508 kts | 296° |
| 2026-05-07 17:50 | 58.25881 | 37.60601 | 46999 ft | 508 kts | 296° |
| 2026-05-07 17:51 | 58.29255 | 37.48786 | 46998 ft | 508 kts | 296° |
| 2026-05-07 17:51 | 58.32594 | 37.37029 | 47001 ft | 508 kts | 296° |
| 2026-05-07 17:52 | 58.35957 | 37.25127 | 47001 ft | 508 kts | 296° |
| 2026-05-07 17:52 | 58.39276 | 37.13319 | 47007 ft | 508 kts | 296° |
| 2026-05-07 17:53 | 58.42615 | 37.01378 | 47006 ft | 508 kts | 295° |
| 2026-05-07 17:53 | 58.45937 | 36.89435 | 47008 ft | 509 kts | 295° |
| 2026-05-07 17:54 | 58.48680 | 36.79529 | 47007 ft | 509 kts | 295° |
| 2026-05-07 17:54 | 58.51972 | 36.67582 | 47005 ft | 509 kts | 295° |
| 2026-05-07 17:55 | 58.55268 | 36.55554 | 47005 ft | 509 kts | 295° |
| 2026-05-07 17:55 | 58.58536 | 36.43572 | 47013 ft | 509 kts | 295° |
| 2026-05-07 17:56 | 58.61812 | 36.31490 | 47010 ft | 510 kts | 295° |
| 2026-05-07 17:56 | 58.65082 | 36.19369 | 47014 ft | 510 kts | 295° |
| 2026-05-07 17:57 | 58.68315 | 36.07317 | 47017 ft | 510 kts | 295° |
| 2026-05-07 17:57 | 58.71561 | 35.95158 | 47021 ft | 510 kts | 295° |
| 2026-05-07 17:58 | 58.74773 | 35.83058 | 47018 ft | 510 kts | 294° |
| 2026-05-07 17:58 | 58.77981 | 35.70907 | 47021 ft | 509 kts | 294° |
| 2026-05-07 17:59 | 58.81189 | 35.58688 | 47021 ft | 509 kts | 294° |
| 2026-05-07 17:59 | 58.84372 | 35.46500 | 47025 ft | 509 kts | 294° |
| 2026-05-07 18:00 | 58.87556 | 35.34241 | 47025 ft | 508 kts | 294° |
| 2026-05-07 18:00 | 58.90709 | 35.22038 | 47025 ft | 508 kts | 294° |
| 2026-05-07 18:01 | 58.93841 | 35.09846 | 47032 ft | 508 kts | 294° |
| 2026-05-07 18:01 | 58.96982 | 34.97551 | 47031 ft | 508 kts | 294° |
| 2026-05-07 18:02 | 59.01656 | 34.79130 | 47037 ft | 508 kts | 294° |
| 2026-05-07 18:03 | 59.04770 | 34.66776 | 47039 ft | 508 kts | 293° |
| 2026-05-07 18:03 | 59.07848 | 34.54489 | 47037 ft | 508 kts | 293° |
| 2026-05-07 18:04 | 59.10809 | 34.42610 | 47029 ft | 508 kts | 293° |
| 2026-05-07 18:04 | 59.13815 | 34.30480 | 47027 ft | 508 kts | 293° |
| 2026-05-07 18:05 | 59.16837 | 34.18220 | 47033 ft | 508 kts | 293° |
| 2026-05-07 18:05 | 59.19792 | 34.06167 | 47044 ft | 507 kts | 293° |
| 2026-05-07 18:06 | 59.22757 | 33.94002 | 47050 ft | 507 kts | 293° |
| 2026-05-07 18:06 | 59.25746 | 33.81671 | 47051 ft | 507 kts | 293° |
| 2026-05-07 18:07 | 59.28759 | 33.69169 | 47041 ft | 507 kts | 292° |
| 2026-05-07 18:07 | 59.31760 | 33.56648 | 47059 ft | 507 kts | 292° |
| 2026-05-07 18:08 | 59.34746 | 33.44117 | 47057 ft | 507 kts | 292° |
| 2026-05-07 18:08 | 59.37704 | 33.31627 | 47059 ft | 507 kts | 292° |
| 2026-05-07 18:09 | 59.40669 | 33.19042 | 47043 ft | 507 kts | 292° |
| 2026-05-07 18:09 | 59.43606 | 33.06497 | 47056 ft | 507 kts | 292° |
| 2026-05-07 18:10 | 59.46550 | 32.93849 | 47059 ft | 507 kts | 292° |
| 2026-05-07 18:10 | 59.49462 | 32.81267 | 47055 ft | 506 kts | 292° |
| 2026-05-07 18:11 | 59.52372 | 32.68616 | 47058 ft | 506 kts | 292° |
| 2026-05-07 18:11 | 59.55250 | 32.56033 | 47056 ft | 506 kts | 292° |
| 2026-05-07 18:12 | 59.58142 | 32.43313 | 47066 ft | 506 kts | 292° |
| 2026-05-07 18:12 | 59.60992 | 32.30697 | 47062 ft | 506 kts | 291° |
| 2026-05-07 18:13 | 59.63850 | 32.17977 | 47065 ft | 505 kts | 291° |
| 2026-05-07 18:13 | 59.66677 | 32.05315 | 47066 ft | 505 kts | 291° |
| 2026-05-07 18:14 | 59.69880 | 31.92879 | 46972 ft | 510 kts | 301° |
| 2026-05-07 18:14 | 59.71952 | 31.87116 | 46161 ft | 513 kts | 303° |
| 2026-05-07 18:14 | 59.74053 | 31.81471 | 45506 ft | 514 kts | 303° |
| 2026-05-07 18:14 | 59.76163 | 31.75703 | 44828 ft | 513 kts | 303° |
| 2026-05-07 18:15 | 59.78207 | 31.69984 | 44144 ft | 512 kts | 302° |
| 2026-05-07 18:15 | 59.80280 | 31.64207 | 43464 ft | 511 kts | 302° |
| 2026-05-07 18:15 | 59.82360 | 31.58482 | 42789 ft | 510 kts | 302° |
| 2026-05-07 18:15 | 59.84414 | 31.52806 | 42118 ft | 508 kts | 302° |
| 2026-05-07 18:16 | 59.86321 | 31.46928 | 41440 ft | 498 kts | 295° |
| 2026-05-07 18:16 | 59.87730 | 31.40762 | 40770 ft | 479 kts | 287° |
| 2026-05-07 18:16 | 59.88611 | 31.34572 | 39920 ft | 463 kts | 279° |
| 2026-05-07 18:16 | 59.88989 | 31.28272 | 38893 ft | 453 kts | 270° |
| 2026-05-07 18:17 | 59.88837 | 31.22062 | 37757 ft | 442 kts | 261° |
| 2026-05-07 18:17 | 59.88334 | 31.16200 | 37449 ft | 417 kts | 258° |
| 2026-05-07 18:17 | 59.87605 | 31.10710 | 36872 ft | 401 kts | 252° |
| 2026-05-07 18:17 | 59.86657 | 31.05547 | 36350 ft | 397 kts | 248° |
| 2026-05-07 18:18 | 59.85449 | 31.00517 | 35829 ft | 412 kts | 243° |
| 2026-05-07 18:18 | 59.84092 | 30.95934 | 35350 ft | 433 kts | 240° |
| 2026-05-07 18:18 | 59.82765 | 30.90512 | 34597 ft | 451 kts | 248° |
| 2026-05-07 18:18 | 59.81898 | 30.84524 | 33457 ft | 449 kts | 257° |
| 2026-05-07 18:19 | 59.81446 | 30.78483 | 32196 ft | 432 kts | 259° |
| 2026-05-07 18:19 | 59.81005 | 30.72759 | 30978 ft | 416 kts | 257° |
| 2026-05-07 18:19 | 59.80377 | 30.67250 | 29710 ft | 401 kts | 253° |
| 2026-05-07 18:19 | 59.79696 | 30.61898 | 28328 ft | 401 kts | 254° |
| 2026-05-07 18:20 | 59.79095 | 30.56319 | 27036 ft | 422 kts | 257° |
| 2026-05-07 18:20 | 59.78538 | 30.50591 | 25800 ft | 420 kts | 257° |
| 2026-05-07 18:20 | 59.77943 | 30.45006 | 24632 ft | 416 kts | 256° |
| 2026-05-07 18:20 | 59.77297 | 30.39413 | 23462 ft | 411 kts | 256° |
| 2026-05-07 18:21 | 59.76680 | 30.33898 | 22125 ft | 407 kts | 257° |
| 2026-05-07 18:21 | 59.76094 | 30.28405 | 20841 ft | 402 kts | 257° |
| 2026-05-07 18:21 | 59.75507 | 30.23007 | 19616 ft | 398 kts | 257° |
| 2026-05-07 18:21 | 59.74911 | 30.17719 | 18452 ft | 395 kts | 257° |
| 2026-05-07 18:22 | 59.74312 | 30.12398 | 17140 ft | 393 kts | 257° |
| 2026-05-07 18:22 | 59.73923 | 30.08899 | 16292 ft | 392 kts | 258° |
| 2026-05-07 18:22 | 59.73139 | 30.01861 | 14646 ft | 389 kts | 258° |
| 2026-05-07 18:22 | 59.72553 | 29.96685 | 13428 ft | 387 kts | 258° |
| 2026-05-07 18:23 | 59.71962 | 29.91474 | 12129 ft | 385 kts | 258° |
| 2026-05-07 18:23 | 59.71375 | 29.86300 | 10899 ft | 383 kts | 258° |
| 2026-05-07 18:23 | 59.70807 | 29.81319 | 9757 ft | 360 kts | 258° |
| 2026-05-07 18:23 | 59.70263 | 29.76585 | 8973 ft | 333 kts | 258° |
| 2026-05-07 18:24 | 59.69776 | 29.72353 | 8206 ft | 300 kts | 259° |
| 2026-05-07 18:24 | 59.69319 | 29.68367 | 7425 ft | 300 kts | 259° |
| 2026-05-07 18:24 | 59.69115 | 29.64349 | 6929 ft | 283 kts | 280° |
| 2026-05-07 18:24 | 59.69851 | 29.61013 | 6775 ft | 261 kts | 307° |
| 2026-05-07 18:25 | 59.71092 | 29.58455 | 6523 ft | 259 kts | 326° |
| 2026-05-07 18:25 | 59.72715 | 29.56886 | 6193 ft | 259 kts | 345° |
| 2026-05-07 18:25 | 59.74474 | 29.56526 | 5864 ft | 258 kts | 5° |
| 2026-05-07 18:25 | 59.76216 | 29.57417 | 5520 ft | 256 kts | 24° |
| 2026-05-07 18:26 | 59.77652 | 29.59399 | 5166 ft | 256 kts | 44° |
| 2026-05-07 18:26 | 59.78666 | 29.62301 | 4806 ft | 256 kts | 63° |
| 2026-05-07 18:26 | 59.79101 | 29.65709 | 4450 ft | 256 kts | 83° |
| 2026-05-07 18:26 | 59.79180 | 29.69229 | 4144 ft | 255 kts | 86° |
| 2026-05-07 18:27 | 59.79264 | 29.72731 | 3814 ft | 255 kts | 85° |
| 2026-05-07 18:27 | 59.79450 | 29.76075 | 3456 ft | 229 kts | 74° |
| 2026-05-07 18:27 | 59.80117 | 29.78709 | 3428 ft | 202 kts | 59° |
| 2026-05-07 18:27 | 59.80571 | 29.80320 | 3368 ft | 201 kts | 60° |
| 2026-05-07 18:28 | 59.81476 | 29.83627 | 3169 ft | 208 kts | 61° |
| 2026-05-07 18:28 | 59.82179 | 29.86160 | 2997 ft | 209 kts | 60° |
| 2026-05-07 18:28 | 59.82885 | 29.88695 | 2827 ft | 210 kts | 60° |
| 2026-05-07 18:28 | 59.83592 | 29.91243 | 2634 ft | 210 kts | 61° |
| 2026-05-07 18:29 | 59.84000 | 29.93958 | 2378 ft | 210 kts | 89° |
| 2026-05-07 18:29 | 59.83692 | 29.96731 | 2438 ft | 205 kts | 105° |
| 2026-05-07 18:29 | 59.83281 | 29.99514 | 2477 ft | 213 kts | 104° |
| 2026-05-07 18:29 | 59.82890 | 30.02262 | 2142 ft | 189 kts | 104° |
| 2026-05-07 18:30 | 59.82552 | 30.04532 | 1897 ft | 157 kts | 105° |
| 2026-05-07 18:30 | 59.82268 | 30.06431 | 1686 ft | 131 kts | 105° |
| 2026-05-07 18:30 | 59.82025 | 30.08066 | 1508 ft | 117 kts | 104° |
| 2026-05-07 18:30 | 59.81807 | 30.09557 | 1368 ft | 112 kts | 104° |
| 2026-05-07 18:31 | 59.81587 | 30.11043 | 1217 ft | 111 kts | 104° |
| 2026-05-07 18:31 | 59.81366 | 30.12533 | 1056 ft | 113 kts | 105° |
| 2026-05-07 18:31 | 59.81140 | 30.14058 | 900 ft | 116 kts | 105° |
| 2026-05-07 18:31 | 59.80912 | 30.15598 | 746 ft | 118 kts | 105° |
| 2026-05-07 18:32 | 59.80677 | 30.17184 | 584 ft | 120 kts | 105° |
| 2026-05-07 18:32 | 59.80442 | 30.18767 | 422 ft | 119 kts | 105° |
| 2026-05-07 18:32 | 59.80208 | 30.20345 | 271 ft | 119 kts | 105° |
| 2026-05-07 18:32 | 59.79980 | 30.21928 | 134 ft | 119 kts | 105° |
| 2026-05-07 18:33 | 59.79760 | 30.23448 | 81 ft | 109 kts | 105° |
| 2026-05-07 18:33 | 59.79594 | 30.24548 | 83 ft | 54 kts | 107° |
| 2026-05-07 18:33 | 59.79496 | 30.25193 | 81 ft | 31 kts | 107° |
| 2026-05-07 18:33 | 59.79487 | 30.25459 | 81 ft | 0 kts | 80° |
| 2026-05-07 18:34 | 59.79490 | 30.25496 | 81 ft | 4 kts | 80° |
| 2026-05-07 18:34 | 59.79495 | 30.25560 | 80 ft | 5 kts | 81° |
| 2026-05-07 18:34 | 59.79503 | 30.25637 | 81 ft | 5 kts | 72° |
| 2026-05-07 18:34 | 59.79514 | 30.25706 | 84 ft | 5 kts | 72° |
| 2026-05-07 18:35 | 59.79523 | 30.25766 | 81 ft | 4 kts | 73° |
| 2026-05-07 18:35 | 59.79530 | 30.25813 | 84 ft | 3 kts | 73° |
| 2026-05-07 18:35 | 59.79537 | 30.25859 | 80 ft | 4 kts | 73° |
| 2026-05-07 18:35 | 59.79552 | 30.26015 | 80 ft | 17 kts | 100° |
| 2026-05-07 18:36 | 59.79523 | 30.26205 | 84 ft | 11 kts | 107° |
| 2026-05-07 18:36 | 59.79514 | 30.26349 | 82 ft | 8 kts | 45° |
| 2026-05-07 18:36 | 59.79572 | 30.26385 | 83 ft | 9 kts | 15° |
| 2026-05-07 18:36 | 59.79633 | 30.26418 | 79 ft | 10 kts | 15° |
| 2026-05-07 18:37 | 59.79734 | 30.26475 | 73 ft | 20 kts | 17° |
| 2026-05-07 18:37 | 59.79882 | 30.26565 | 77 ft | 23 kts | 18° |
| 2026-05-07 18:37 | 59.80034 | 30.26655 | 75 ft | 24 kts | 16° |
| 2026-05-07 18:37 | 59.80209 | 30.26754 | 73 ft | 26 kts | 16° |
| 2026-05-07 18:38 | 59.80357 | 30.26845 | 69 ft | 20 kts | 17° |
| 2026-05-07 18:38 | 59.80382 | 30.26986 | 72 ft | 12 kts | 108° |
| 2026-05-07 18:38 | 59.80357 | 30.27139 | 68 ft | 11 kts | 108° |
| 2026-05-07 18:38 | 59.80336 | 30.27286 | 72 ft | 11 kts | 106° |
| 2026-05-07 18:39 | 59.80314 | 30.27433 | 70 ft | 12 kts | 106° |
| 2026-05-07 18:39 | 59.80285 | 30.27623 | 68 ft | 20 kts | 107° |
| 2026-05-07 18:39 | 59.80238 | 30.27934 | 68 ft | 23 kts | 107° |
| 2026-05-07 18:39 | 59.80195 | 30.28226 | 71 ft | 22 kts | 106° |
| 2026-05-07 18:40 | 59.80149 | 30.28548 | 72 ft | 27 kts | 106° |
| 2026-05-07 18:40 | 59.80093 | 30.28895 | 68 ft | 21 kts | 128° |
| 2026-05-07 18:40 | 59.79982 | 30.28877 | 68 ft | 16 kts | 196° |
| 2026-05-07 18:40 | 59.79883 | 30.28827 | 69 ft | 13 kts | 178° |
| 2026-05-07 18:41 | 59.79848 | 30.28933 | 70 ft | 8 kts | 131° |
| 2026-05-07 18:41 | 59.79813 | 30.28940 | 73 ft | 0 kts | 197° |